Time;durP1;ratioP1;P1;durP2;ratioP2;P2;SDS_P1;SDS_P2;PMS_P1;PMS_P2;Temp;Humidity;BMP_temperature;BMP_pressure;BME280_temperature;BME280_humidity;BME280_pressure;Samples;Min_cycle;Max_cycle;Signal;HPM_P1;HPM_P2
2022/08/01 00:00:31;;;;;;;5.93;3.03;;;;;;;21.71;78.28;100743.09;4997046;28;20532;-68
2022/08/01 00:02:58;;;;;;;4.37;2.77;;;;;;;21.72;78.43;100741.91;4996181;28;20547;-67
2022/08/01 00:05:24;;;;;;;4.37;2.40;;;;;;;21.72;78.85;100752.94;4995722;28;20876;-67
2022/08/01 00:07:51;;;;;;;4.87;2.47;;;;;;;21.71;78.98;100754.09;4995860;28;20935;-67
2022/08/01 00:10:18;;;;;;;6.33;2.87;;;;;;;21.54;79.55;100757.41;4996880;28;20587;-66
2022/08/01 00:12:45;;;;;;;4.70;2.63;;;;;;;21.56;79.46;100749.53;4995827;28;20487;-67
2022/08/01 00:15:15;;;;;;;5.17;2.80;;;;;;;21.48;80.76;100747.88;4995568;28;21014;-67
2022/08/01 00:17:43;;;;;;;3.57;2.27;;;;;;;21.42;81.59;100748.16;4995877;28;20555;-66
2022/08/01 00:20:12;;;;;;;5.70;3.30;;;;;;;21.44;81.88;100752.53;4995815;28;20535;-68
2022/08/01 00:22:39;;;;;;;4.77;2.57;;;;;;;21.40;82.87;100742.25;4995749;28;20544;-67
2022/08/01 00:25:07;;;;;;;4.97;3.00;;;;;;;21.31;85.31;100744.47;4995702;28;20904;-67
2022/08/01 00:27:33;;;;;;;6.17;3.53;;;;;;;21.25;85.93;100745.91;4996194;28;20463;-67
2022/08/01 00:30:00;;;;;;;5.77;2.83;;;;;;;21.11;87.04;100742.91;4995502;28;20489;-66
2022/08/01 00:32:31;;;;;;;4.83;2.53;;;;;;;21.01;88.06;100732.53;4996529;28;20524;-66
2022/08/01 00:34:57;;;;;;;4.63;2.80;;;;;;;21.06;88.45;100741.25;4995294;28;20468;-66
2022/08/01 00:37:24;;;;;;;5.00;2.77;;;;;;;21.02;88.45;100739.63;4995945;28;21058;-66
2022/08/01 00:39:50;;;;;;;4.97;2.90;;;;;;;21.01;88.79;100725.06;4995381;28;20548;-66
2022/08/01 00:42:17;;;;;;;4.20;3.10;;;;;;;21.05;88.90;100736.13;4996277;28;20540;-66
2022/08/01 00:44:44;;;;;;;5.87;3.20;;;;;;;20.97;89.88;100729.72;4994199;28;20855;-66
2022/08/01 00:47:10;;;;;;;4.13;2.77;;;;;;;20.96;89.72;100739.13;4995652;28;20524;-67
2022/08/01 00:49:38;;;;;;;5.37;3.10;;;;;;;20.95;90.06;100726.53;4995149;28;20464;-69
2022/08/01 00:52:06;;;;;;;5.50;3.00;;;;;;;20.99;89.76;100730.16;4995772;28;21010;-69
2022/08/01 00:54:33;;;;;;;5.50;3.03;;;;;;;21.00;89.88;100728.97;4995188;28;20465;-69
2022/08/01 00:57:00;;;;;;;12.20;3.20;;;;;;;21.01;90.30;100724.25;4994964;28;20564;-69
2022/08/01 00:59:27;;;;;;;5.03;2.60;;;;;;;21.02;90.23;100725.84;4996141;28;20445;-70
2022/08/01 01:01:54;;;;;;;4.90;2.67;;;;;;;21.08;90.46;100735.41;4994979;28;20588;-70
2022/08/01 01:04:21;;;;;;;4.30;2.80;;;;;;;21.09;89.80;100726.78;4995635;28;20464;-69
2022/08/01 01:06:57;;;;;;;4.70;2.90;;;;;;;21.05;90.37;100725.91;4995798;28;20500;-68
2022/08/01 01:09:35;;;;;;;8.53;3.87;;;;;;;21.03;90.11;100721.91;4994404;28;21038;-69
2022/08/01 01:12:12;;;;;;;6.10;3.13;;;;;;;21.00;90.14;100723.47;4995770;28;20469;-68
2022/08/01 01:14:46;;;;;;;5.07;3.07;;;;;;;20.98;90.19;100723.03;4992622;28;20955;-68
2022/08/01 01:17:17;;;;;;;4.60;2.93;;;;;;;20.91;90.97;100715.47;4995688;28;20599;-69
2022/08/01 01:19:48;;;;;;;5.53;3.27;;;;;;;20.88;91.45;100716.19;4995021;28;20560;-69
2022/08/01 01:22:24;;;;;;;4.90;2.80;;;;;;;20.79;91.67;100707.38;4994506;28;20562;-68
2022/08/01 01:25:05;;;;;;;4.87;2.77;;;;;;;20.79;91.81;100710.13;4994467;28;20918;-69
2022/08/01 01:27:43;;;;;;;4.83;2.77;;;;;;;20.80;91.68;100713.69;4995139;28;20465;-69
2022/08/01 01:30:11;;;;;;;4.73;2.90;;;;;;;20.79;91.76;100718.38;4994368;28;20468;-66
2022/08/01 01:32:42;;;;;;;3.77;2.73;;;;;;;20.77;91.94;100715.22;4994086;28;20468;-68
2022/08/01 01:35:14;;;;;;;6.33;3.10;;;;;;;20.72;92.43;100714.72;4994494;28;20496;-67
2022/08/01 01:37:45;;;;;;;5.57;3.30;;;;;;;20.63;93.21;100709.47;4993921;28;20485;-69
2022/08/01 01:40:14;;;;;;;5.27;3.13;;;;;;;20.63;92.97;100712.22;4994998;28;20520;-68
2022/08/01 01:42:43;;;;;;;5.07;2.70;;;;;;;20.60;93.51;100702.72;4994992;28;20441;-68
2022/08/01 01:45:12;;;;;;;4.93;2.30;;;;;;;20.58;93.47;100712.50;4994862;28;20533;-68
2022/08/01 01:47:40;;;;;;;5.30;3.10;;;;;;;20.54;94.11;100714.41;4994870;28;20473;-68
2022/08/01 01:50:12;;;;;;;4.73;2.90;;;;;;;20.52;93.91;100714.78;4994260;28;20528;-69
2022/08/01 01:52:41;;;;;;;4.30;2.63;;;;;;;20.51;93.62;100712.41;4994989;28;20443;-68
2022/08/01 01:55:09;;;;;;;5.67;2.70;;;;;;;20.46;93.74;100710.72;4994689;28;20977;-68
2022/08/01 01:57:39;;;;;;;6.03;3.30;;;;;;;20.41;94.61;100709.06;4994477;28;20910;-68
2022/08/01 02:00:08;;;;;;;5.33;3.20;;;;;;;20.37;94.81;100710.16;4994740;28;20528;-68
2022/08/01 02:02:37;;;;;;;4.40;2.73;;;;;;;20.32;95.09;100700.22;4994837;28;20452;-68
2022/08/01 02:05:06;;;;;;;6.60;3.00;;;;;;;20.31;95.06;100704.13;4994441;28;21022;-68
2022/08/01 02:07:33;;;;;;;5.03;3.13;;;;;;;20.26;95.21;100701.66;4994333;28;20473;-69
2022/08/01 02:10:02;;;;;;;6.90;3.33;;;;;;;20.23;95.74;100712.59;4994644;28;20449;-68
2022/08/01 02:12:33;;;;;;;5.67;3.63;;;;;;;20.24;95.81;100712.25;4994532;28;20492;-69
2022/08/01 02:15:03;;;;;;;5.30;2.63;;;;;;;20.25;95.68;100711.09;4994629;28;20790;-68
2022/08/01 02:17:31;;;;;;;4.90;2.90;;;;;;;20.24;95.76;100704.00;4994431;28;20460;-70
2022/08/01 02:20:00;;;;;;;9.40;3.57;;;;;;;20.24;96.72;100709.50;4994196;28;20449;-68
2022/08/01 02:22:31;;;;;;;5.17;3.30;;;;;;;20.24;96.30;100703.22;4994441;28;20532;-69
2022/08/01 02:25:06;;;;;;;4.60;3.07;;;;;;;20.21;96.75;100704.72;4994166;28;20516;-68
2022/08/01 02:27:37;;;;;;;8.77;4.13;;;;;;;20.23;97.02;100701.59;4994029;28;20500;-69
2022/08/01 02:30:07;;;;;;;5.00;3.10;;;;;;;20.22;96.78;100703.56;4994363;28;20444;-68
2022/08/01 02:32:39;;;;;;;4.80;3.17;;;;;;;20.22;96.87;100689.81;4994460;28;20577;-67
2022/08/01 02:35:12;;;;;;;6.20;3.60;;;;;;;20.20;96.78;100694.88;4994284;28;20516;-68
2022/08/01 02:37:40;;;;;;;6.27;3.57;;;;;;;20.21;96.63;100698.44;4994207;28;20827;-68
2022/08/01 02:40:10;;;;;;;5.60;3.60;;;;;;;20.23;96.95;100699.66;4994214;28;20473;-68
2022/08/01 02:42:38;;;;;;;4.70;2.80;;;;;;;20.24;96.71;100705.97;4994088;28;20536;-68
2022/08/01 02:45:08;;;;;;;7.27;3.40;;;;;;;20.27;97.08;100699.72;4994019;28;20449;-69
2022/08/01 02:47:36;;;;;;;6.10;3.33;;;;;;;20.30;96.79;100694.28;4993893;28;20568;-69
2022/08/01 02:50:04;;;;;;;8.53;4.00;;;;;;;20.31;97.05;100703.31;4994045;28;20543;-69
2022/08/01 02:52:33;;;;;;;8.90;4.37;;;;;;;20.27;97.21;100695.00;4993864;28;20580;-71
2022/08/01 02:55:02;;;;;;;8.23;4.67;;;;;;;20.30;97.24;100699.00;4993878;28;20476;-76
2022/08/01 02:57:31;;;;;;;6.23;4.00;;;;;;;20.33;96.81;100703.78;4994261;28;20473;-78
2022/08/01 02:59:59;;;;;;;6.27;3.50;;;;;;;20.36;96.59;100700.28;4993925;28;21023;-70
2022/08/01 03:02:27;;;;;;;5.67;3.07;;;;;;;20.35;96.48;100704.97;4993894;28;20512;-70
2022/08/01 03:04:55;;;;;;;8.13;4.40;;;;;;;20.38;96.37;100700.72;4993882;28;20485;-68
2022/08/01 03:07:23;;;;;;;4.93;3.43;;;;;;;20.37;96.69;100702.69;4993518;28;21054;-68
2022/08/01 03:09:52;;;;;;;10.50;3.77;;;;;;;20.40;96.84;100701.13;4993843;28;20818;-69
2022/08/01 03:12:24;;;;;;;5.93;3.37;;;;;;;20.42;97.19;100705.13;4993944;28;20571;-68
2022/08/01 03:14:53;;;;;;;6.70;4.40;;;;;;;20.48;97.14;100707.59;4993856;28;20452;-68
2022/08/01 03:17:22;;;;;;;6.00;3.40;;;;;;;20.47;96.44;100704.03;4993831;28;20492;-69
2022/08/01 03:19:50;;;;;;;8.03;4.40;;;;;;;20.47;96.87;100706.00;4993836;28;20529;-68
2022/08/01 03:22:18;;;;;;;6.13;3.63;;;;;;;20.47;96.25;100712.28;4993698;28;20472;-68
2022/08/01 03:24:49;;;;;;;5.63;3.23;;;;;;;20.47;95.82;100715.03;4993694;28;20447;-68
2022/08/01 03:27:19;;;;;;;5.50;3.30;;;;;;;20.48;96.17;100722.16;4993864;28;20507;-68
2022/08/01 03:29:48;;;;;;;5.97;3.77;;;;;;;20.47;96.15;100717.00;4993994;28;20860;-68
2022/08/01 03:32:16;;;;;;;5.60;3.40;;;;;;;20.40;96.26;100723.94;4993572;28;20472;-68
2022/08/01 03:34:42;;;;;;;6.17;4.20;;;;;;;20.36;96.57;100712.09;4993366;28;21041;-69
2022/08/01 03:37:13;;;;;;;5.60;3.20;;;;;;;20.36;96.90;100716.78;4993689;28;20461;-69
2022/08/01 03:39:47;;;;;;;6.70;3.40;;;;;;;20.32;97.32;100716.75;4993722;28;20516;-69
2022/08/01 03:42:19;;;;;;;6.37;3.70;;;;;;;20.35;96.81;100718.75;4993659;28;20460;-68
2022/08/01 03:44:52;;;;;;;23.73;5.20;;;;;;;20.25;97.65;100722.09;4993845;28;20453;-69
2022/08/01 03:47:20;;;;;;;12.90;3.73;;;;;;;20.28;97.70;100720.59;4993210;28;20576;-69
2022/08/01 03:49:49;;;;;;;5.50;4.10;;;;;;;20.33;97.57;100720.28;4993133;28;20487;-69
2022/08/01 03:52:16;;;;;;;17.90;3.77;;;;;;;20.35;97.53;100721.50;4993077;28;20567;-68
2022/08/01 03:54:48;;;;;;;10.27;3.33;;;;;;;20.43;97.13;100727.94;4993558;28;20535;-68
2022/08/01 03:57:15;;;;;;;14.53;3.70;;;;;;;20.45;96.88;100725.59;4993455;28;20508;-69
2022/08/01 03:59:44;;;;;;;10.43;3.60;;;;;;;20.46;97.18;100723.66;4993488;28;20539;-67
2022/08/01 04:02:13;;;;;;;6.73;4.17;;;;;;;20.46;98.02;100721.72;4993450;28;20528;-69
2022/08/01 04:04:40;;;;;;;6.87;3.90;;;;;;;20.48;97.78;100724.13;4993633;28;20468;-68
2022/08/01 04:07:22;;;;;;;9.83;4.20;;;;;;;20.45;97.38;100724.81;4993323;28;20508;-68
2022/08/01 04:09:49;;;;;;;12.67;5.07;;;;;;;20.42;98.28;100715.34;4993716;28;20480;-68
2022/08/01 04:12:15;;;;;;;10.50;4.77;;;;;;;20.47;97.77;100717.00;4993326;28;20579;-67
2022/08/01 04:14:43;;;;;;;7.53;3.87;;;;;;;20.42;98.29;100724.38;4997105;28;20476;-68
2022/08/01 04:17:10;;;;;;;6.83;4.00;;;;;;;20.48;98.97;100730.41;4997071;28;20497;-70
2022/08/01 04:19:37;;;;;;;11.00;4.30;;;;;;;20.47;98.69;100734.31;4997072;28;20476;-69
2022/08/01 04:22:03;;;;;;;7.97;4.87;;;;;;;20.44;99.43;100736.97;4996993;28;20484;-69
2022/08/01 04:24:32;;;;;;;15.90;4.53;;;;;;;20.46;99.96;100737.44;4996714;28;20528;-70
2022/08/01 04:27:01;;;;;;;19.27;5.00;;;;;;;20.50;99.48;100732.81;4996322;28;20465;-76
2022/08/01 04:29:30;;;;;;;8.93;4.93;;;;;;;20.48;100.00;100741.44;4996779;28;20520;-70
2022/08/01 04:32:01;;;;;;;8.03;3.97;;;;;;;20.37;100.00;100745.91;4996621;28;20572;-70
2022/08/01 04:34:31;;;;;;;13.97;5.23;;;;;;;20.31;100.00;100736.34;4996601;28;20434;-70
2022/08/01 04:37:00;;;;;;;7.57;4.20;;;;;;;20.31;100.00;100741.84;4996509;28;20548;-70
2022/08/01 04:39:30;;;;;;;6.63;4.10;;;;;;;20.31;100.00;100742.63;4996437;28;20452;-70
2022/08/01 04:41:59;;;;;;;8.13;4.77;;;;;;;20.23;100.00;100742.84;4996144;28;20446;-70
2022/08/01 04:44:27;;;;;;;11.20;4.37;;;;;;;20.16;100.00;100743.53;4996066;28;20456;-70
2022/08/01 04:46:56;;;;;;;14.07;4.57;;;;;;;20.15;100.00;100745.47;4996159;28;20476;-71
2022/08/01 04:49:25;;;;;;;8.90;4.43;;;;;;;20.20;100.00;100758.16;4996102;28;21022;-73
2022/08/01 04:51:57;;;;;;;8.33;4.47;;;;;;;20.23;100.00;100754.69;4996566;28;20584;-71
2022/08/01 04:54:24;;;;;;;6.40;4.00;;;;;;;20.26;100.00;100751.19;4995912;28;20437;-71
2022/08/01 04:56:53;;;;;;;7.63;4.27;;;;;;;20.29;100.00;100750.47;4996066;28;20464;-72
2022/08/01 05:02:04;;;;;;;10.53;4.37;;;;;;;20.27;100.00;100754.72;4995869;28;20469;-72
2022/08/01 05:04:32;;;;;;;7.47;4.50;;;;;;;20.30;100.00;100754.00;4995984;28;20476;-72
2022/08/01 05:06:58;;;;;;;5.60;3.77;;;;;;;20.32;100.00;100752.50;4995774;28;20560;-71
2022/08/01 05:09:25;;;;;;;8.00;5.23;;;;;;;20.36;100.00;100760.81;5031760;23;20540;-70
2022/08/01 05:11:51;;;;;;;8.57;4.40;;;;;;;20.42;100.00;100751.13;5015238;28;20523;-70
2022/08/01 05:14:18;;;;;;;7.90;4.10;;;;;;;20.41;100.00;100758.56;5014999;28;20538;-69
2022/08/01 05:16:45;;;;;;;10.83;4.17;;;;;;;20.46;100.00;100760.25;5015232;28;20443;-70
2022/08/01 05:19:12;;;;;;;5.73;3.67;;;;;;;20.52;100.00;100756.06;5014845;28;21054;-69
2022/08/01 05:21:40;;;;;;;11.27;4.40;;;;;;;20.52;100.00;100758.00;5014834;28;20440;-69
2022/08/01 05:24:07;;;;;;;6.37;3.93;;;;;;;20.63;100.00;100754.31;5014193;28;20571;-70
2022/08/01 05:26:34;;;;;;;8.83;4.20;;;;;;;20.66;100.00;100759.06;5014908;28;20484;-70
2022/08/01 05:29:00;;;;;;;4.87;3.10;;;;;;;20.74;100.00;100757.25;5014969;28;20843;-70
2022/08/01 05:31:27;;;;;;;8.67;4.53;;;;;;;20.80;100.00;100758.53;5014893;28;20897;-70
2022/08/01 05:33:53;;;;;;;6.13;3.53;;;;;;;20.75;100.00;100761.59;5014615;28;20538;-69
2022/08/01 05:36:20;;;;;;;7.80;3.30;;;;;;;20.82;100.00;100767.22;5014834;28;20444;-70
2022/08/01 05:38:48;;;;;;;6.43;3.83;;;;;;;20.80;100.00;100777.00;5014742;28;20555;-70
2022/08/01 05:41:15;;;;;;;6.40;3.87;;;;;;;20.78;100.00;100766.38;5014503;28;20530;-69
2022/08/01 05:43:41;;;;;;;6.17;4.43;;;;;;;20.73;100.00;100766.66;5014433;28;20811;-69
2022/08/01 05:46:08;;;;;;;5.87;3.63;;;;;;;20.81;100.00;100765.66;5014777;28;20444;-70
2022/08/01 05:48:34;;;;;;;5.67;3.97;;;;;;;20.81;100.00;100768.41;5014558;28;20551;-69
2022/08/01 05:51:01;;;;;;;9.80;4.03;;;;;;;20.83;100.00;100768.03;5014633;28;20897;-69
2022/08/01 05:53:27;;;;;;;8.07;4.20;;;;;;;20.78;100.00;100773.84;5014465;28;20484;-69
2022/08/01 05:55:56;;;;;;;4.87;3.23;;;;;;;20.82;100.00;100766.44;5014494;28;20482;-69
2022/08/01 05:58:23;;;;;;;4.80;3.00;;;;;;;20.83;100.00;100768.81;5014367;28;20463;-69
2022/08/01 06:00:49;;;;;;;5.83;3.03;;;;;;;20.76;100.00;100782.47;5014077;28;20994;-69
2022/08/01 06:03:16;;;;;;;5.63;3.40;;;;;;;20.83;100.00;100777.06;5014325;28;20536;-70
2022/08/01 06:05:42;;;;;;;5.97;2.90;;;;;;;20.86;100.00;100778.31;5014349;28;20475;-69
2022/08/01 06:08:09;;;;;;;5.50;2.97;;;;;;;20.83;100.00;100782.59;5013793;28;20484;-69
2022/08/01 06:10:35;;;;;;;4.83;2.73;;;;;;;20.88;100.00;100779.53;5014349;28;20432;-68
2022/08/01 06:13:03;;;;;;;5.57;2.73;;;;;;;20.91;100.00;100776.03;5014222;28;20575;-69
2022/08/01 06:15:30;;;;;;;5.70;3.20;;;;;;;20.95;100.00;100781.63;5014173;28;20540;-68
2022/08/01 06:17:57;;;;;;;4.20;1.90;;;;;;;20.99;100.00;100778.94;5013821;28;20539;-69
2022/08/01 06:20:23;;;;;;;4.00;1.93;;;;;;;21.11;100.00;100778.72;5013824;28;20950;-69
2022/08/01 06:22:51;;;;;;;11.30;2.57;;;;;;;21.16;99.52;100776.47;5014059;28;20498;-69
2022/08/01 06:25:18;;;;;;;3.83;2.00;;;;;;;21.21;99.16;100780.88;5013666;28;20958;-69
2022/08/01 06:27:44;;;;;;;3.47;1.93;;;;;;;21.35;98.07;100781.16;5013677;28;20487;-69
2022/08/01 06:30:13;;;;;;;3.53;2.30;;;;;;;21.26;98.04;100775.06;5013931;28;20469;-69
2022/08/01 06:32:39;;;;;;;3.90;2.40;;;;;;;21.38;96.85;100776.84;5013575;28;21017;-69
2022/08/01 06:35:07;;;;;;;3.80;2.20;;;;;;;21.34;97.05;100787.81;5013699;28;20535;-69
2022/08/01 06:37:34;;;;;;;4.80;1.83;;;;;;;21.26;97.47;100790.81;5013749;28;20444;-69
2022/08/01 06:40:01;;;;;;;4.30;2.03;;;;;;;21.25;97.95;100780.91;5013454;28;21069;-69
2022/08/01 06:42:28;;;;;;;12.83;3.00;;;;;;;21.24;98.30;100784.84;5013730;28;20466;-69
2022/08/01 06:44:55;;;;;;;4.40;2.17;;;;;;;21.23;99.10;100788.78;5013532;28;20443;-69
2022/08/01 06:47:23;;;;;;;3.20;1.53;;;;;;;21.19;98.00;100791.47;5013766;28;20483;-70
2022/08/01 06:49:49;;;;;;;3.47;2.03;;;;;;;21.24;97.17;100793.91;5013503;28;20459;-70
2022/08/01 06:52:16;;;;;;;5.90;2.27;;;;;;;21.25;96.72;100801.03;5013521;28;20518;-70
2022/08/01 06:54:43;;;;;;;4.60;1.93;;;;;;;21.34;96.02;100801.59;5013570;28;20534;-71
2022/08/01 06:57:10;;;;;;;3.30;1.70;;;;;;;21.43;95.30;100795.84;5013549;28;20543;-70
2022/08/01 06:59:36;;;;;;;3.67;1.90;;;;;;;21.45;94.99;100798.22;5013455;28;20904;-71
2022/08/01 07:02:03;;;;;;;5.40;2.27;;;;;;;21.40;95.13;100800.13;5013517;28;20532;-71
2022/08/01 07:04:31;;;;;;;3.70;2.00;;;;;;;21.51;94.80;100791.22;5013399;28;20536;-70
2022/08/01 07:06:58;;;;;;;3.77;1.93;;;;;;;21.59;94.67;100801.19;5013133;28;20930;-71
2022/08/01 07:09:25;;;;;;;4.93;2.10;;;;;;;21.62;93.00;100797.69;5013242;28;20472;-71
2022/08/01 07:11:52;;;;;;;4.10;2.00;;;;;;;21.73;92.86;100798.63;5013343;28;20452;-70
2022/08/01 07:14:18;;;;;;;5.63;2.40;;;;;;;21.83;92.17;100795.25;5013456;28;20470;-70
2022/08/01 07:16:45;;;;;;;4.03;1.93;;;;;;;21.89;91.24;100796.50;5013374;28;20539;-70
2022/08/01 07:19:12;;;;;;;5.63;2.30;;;;;;;21.97;90.86;100802.16;5013322;28;20554;-70
2022/08/01 07:21:40;;;;;;;4.60;2.23;;;;;;;22.01;89.94;100798.25;5013022;28;20452;-70
2022/08/01 07:24:07;;;;;;;5.30;2.67;;;;;;;21.69;91.20;100806.06;5013204;28;20945;-70
2022/08/01 07:26:34;;;;;;;3.97;1.70;;;;;;;21.75;91.12;100804.59;5012856;28;20526;-73
2022/08/01 07:29:00;;;;;;;4.30;2.37;;;;;;;21.73;90.20;100798.63;5013234;28;21048;-78
2022/08/01 07:31:27;;;;;;;3.57;2.33;;;;;;;21.57;90.55;100795.25;5014287;28;20535;-77
2022/08/01 07:33:54;;;;;;;4.63;2.23;;;;;;;21.58;91.05;100810.63;5014063;28;20570;-73
2022/08/01 07:36:20;;;;;;;6.00;2.87;;;;;;;21.58;91.19;100807.88;5012915;28;20533;-70
2022/08/01 07:38:48;;;;;;;5.47;2.80;;;;;;;21.53;91.53;100806.22;5012923;28;20838;-72
2022/08/01 07:41:16;;;;;;;4.73;2.40;;;;;;;21.37;91.47;100813.84;5013120;28;20513;-71
2022/08/01 07:43:42;;;;;;;6.63;3.00;;;;;;;21.43;91.34;100828.91;5012821;28;20887;-71
2022/08/01 07:46:09;;;;;;;4.83;2.23;;;;;;;21.54;90.37;100820.81;5012879;28;20448;-71
2022/08/01 07:48:35;;;;;;;5.90;3.00;;;;;;;21.57;90.50;100826.38;5015243;28;20570;-72
2022/08/01 07:51:02;;;;;;;5.70;2.63;;;;;;;21.59;90.20;100834.28;5016817;28;20527;-73
2022/08/01 07:53:29;;;;;;;6.30;2.20;;;;;;;21.54;90.64;100834.59;5016496;28;20488;-72
2022/08/01 07:55:56;;;;;;;3.40;1.50;;;;;;;21.58;89.71;100835.44;5016869;28;20471;-71
2022/08/01 07:58:23;;;;;;;4.37;2.50;;;;;;;21.56;90.87;100840.50;5016719;28;20904;-71
2022/08/01 08:00:50;;;;;;;3.60;1.90;;;;;;;21.61;90.61;100841.03;5016647;28;20534;-71
2022/08/01 08:03:16;;;;;;;4.50;2.40;;;;;;;21.70;89.47;100846.28;5016638;28;20531;-70
2022/08/01 08:05:43;;;;;;;5.23;2.10;;;;;;;21.74;89.13;100838.84;5016580;28;20530;-71
2022/08/01 08:08:11;;;;;;;4.20;2.27;;;;;;;21.82;87.77;100836.97;5016308;28;20547;-71
2022/08/01 08:10:38;;;;;;;15.33;2.10;;;;;;;21.90;87.10;100842.22;5016283;28;20436;-70
2022/08/01 08:13:05;;;;;;;3.00;1.60;;;;;;;22.00;86.90;100840.00;5016477;28;20482;-71
2022/08/01 08:15:32;;;;;;;2.90;1.30;;;;;;;22.20;86.16;100840.72;5016335;28;20450;-71
2022/08/01 08:17:59;;;;;;;3.77;1.83;;;;;;;22.36;85.52;100842.13;5016227;28;20444;-71
2022/08/01 08:20:26;;;;;;;5.23;2.20;;;;;;;22.42;84.28;100839.81;5016298;28;20530;-70
2022/08/01 08:22:53;;;;;;;4.53;1.33;;;;;;;22.33;84.20;100848.38;5016296;28;20435;-71
2022/08/01 08:25:21;;;;;;;3.43;1.63;;;;;;;22.17;84.46;100847.75;5016178;28;20448;-71
2022/08/01 08:27:48;;;;;;;3.40;1.27;;;;;;;22.20;83.97;100843.47;5015873;28;20828;-71
2022/08/01 08:30:16;;;;;;;2.83;1.10;;;;;;;22.37;83.08;100846.47;5016056;28;20467;-70
2022/08/01 08:32:43;;;;;;;2.80;1.20;;;;;;;22.52;82.83;100838.34;5015966;28;20483;-71
2022/08/01 08:35:10;;;;;;;3.03;1.17;;;;;;;22.69;82.80;100839.75;5015748;28;20535;-71
2022/08/01 08:37:37;;;;;;;2.70;1.03;;;;;;;22.81;81.11;100837.50;5015686;28;20982;-71
2022/08/01 08:40:06;;;;;;;2.43;0.87;;;;;;;23.03;79.68;100838.56;5015895;28;20551;-71
2022/08/01 08:42:34;;;;;;;2.70;1.00;;;;;;;23.16;77.40;100830.78;5015566;28;20885;-72
2022/08/01 08:45:00;;;;;;;2.20;1.00;;;;;;;23.01;78.18;100837.34;5015814;28;20448;-72
2022/08/01 08:47:32;;;;;;;2.50;1.10;;;;;;;22.85;78.87;100841.13;5015904;28;20530;-72
2022/08/01 08:49:59;;;;;;;2.70;1.20;;;;;;;22.75;79.62;100841.78;5015510;28;20498;-71
2022/08/01 08:52:26;;;;;;;2.40;1.00;;;;;;;22.57;80.50;100851.81;5015606;28;20444;-71
2022/08/01 08:54:54;;;;;;;4.30;1.33;;;;;;;22.46;82.50;100857.22;5015257;28;20448;-73
2022/08/01 08:57:21;;;;;;;2.03;0.70;;;;;;;22.53;82.34;100853.75;5015505;28;20531;-73
2022/08/01 08:59:51;;;;;;;2.40;0.83;;;;;;;22.61;82.85;100858.97;5015185;28;20883;-71
2022/08/01 09:02:18;;;;;;;2.60;1.03;;;;;;;22.69;82.55;100862.63;5015576;28;20482;-71
2022/08/01 09:04:48;;;;;;;3.00;1.30;;;;;;;22.79;82.08;100863.91;5015144;28;20454;-71
2022/08/01 09:07:15;;;;;;;2.70;1.00;;;;;;;22.84;81.32;100871.84;5015129;28;20531;-71
2022/08/01 09:09:42;;;;;;;3.10;1.40;;;;;;;22.85;80.63;100865.19;5015051;28;21084;-72
2022/08/01 09:12:09;;;;;;;3.03;1.10;;;;;;;22.87;80.60;100877.44;5015352;28;20446;-71
2022/08/01 09:14:45;;;;;;;4.20;1.67;;;;;;;22.91;80.74;100874.75;5014960;28;20925;-71
2022/08/01 09:17:12;;;;;;;3.90;1.70;;;;;;;22.97;80.90;100872.44;5015043;28;20450;-71
2022/08/01 09:19:41;;;;;;;3.07;1.43;;;;;;;22.98;80.86;100883.13;5014273;28;20479;-72
2022/08/01 09:22:10;;;;;;;3.50;1.77;;;;;;;22.87;81.17;100877.44;5014352;28;20484;-72
2022/08/01 09:24:37;;;;;;;3.10;1.27;;;;;;;22.81;81.10;100878.16;5014529;28;20456;-72
2022/08/01 09:27:17;;;;;;;2.93;1.20;;;;;;;22.70;80.67;100886.31;5014216;28;20797;-72
2022/08/01 09:29:45;;;;;;;2.60;1.10;;;;;;;22.56;81.32;100895.22;5014054;28;20459;-72
2022/08/01 09:32:12;;;;;;;2.87;1.40;;;;;;;22.40;82.14;100898.19;5014483;28;20443;-74
2022/08/01 09:34:38;;;;;;;2.87;1.33;;;;;;;22.37;82.50;100903.63;5014374;28;20479;-74
2022/08/01 09:37:05;;;;;;;2.43;0.87;;;;;;;22.32;82.10;100906.72;5014266;28;20543;-74
2022/08/01 09:39:37;;;;;;;4.07;1.53;;;;;;;22.29;82.87;100901.94;5014136;28;20507;-70
2022/08/01 09:42:20;;;;;;;2.83;1.47;;;;;;;22.25;83.13;100901.88;5014194;28;20432;-71
2022/08/01 09:44:47;;;;;;;2.60;1.00;;;;;;;22.26;82.98;100895.19;5014143;28;20424;-71
2022/08/01 09:47:14;;;;;;;2.73;1.30;;;;;;;22.38;82.30;100908.00;5013726;28;20886;-70
2022/08/01 09:49:42;;;;;;;3.10;1.60;;;;;;;22.45;82.26;100904.53;5013850;28;20504;-73
2022/08/01 09:52:14;;;;;;;4.73;1.10;;;;;;;22.52;81.91;100910.94;5014056;28;20478;-71
2022/08/01 09:54:44;;;;;;;3.50;1.47;;;;;;;22.55;82.01;100912.94;5013808;28;20480;-71
2022/08/01 09:57:13;;;;;;;2.77;1.10;;;;;;;22.51;81.63;100914.88;5013861;28;20542;-71
2022/08/01 09:59:43;;;;;;;5.80;1.27;;;;;;;22.67;81.59;100917.47;5013802;28;20460;-71
2022/08/01 10:02:13;;;;;;;2.93;1.30;;;;;;;22.73;80.09;100921.47;5013622;28;20487;-71
2022/08/01 10:04:47;;;;;;;2.20;0.97;;;;;;;22.82;80.78;100913.69;5014202;28;20438;-71
2022/08/01 10:07:15;;;;;;;3.77;1.30;;;;;;;22.86;80.95;100909.00;5013397;28;20423;-71
2022/08/01 10:09:43;;;;;;;2.33;1.00;;;;;;;23.04;80.09;100919.50;5013591;28;20534;-72
2022/08/01 10:12:12;;;;;;;3.80;1.20;;;;;;;23.13;80.19;100931.03;5013222;28;20574;-71
2022/08/01 10:14:40;;;;;;;5.40;1.50;;;;;;;23.20;78.84;100928.38;5013591;28;20483;-70
2022/08/01 10:17:09;;;;;;;2.47;1.00;;;;;;;23.14;79.64;100927.88;5013202;28;20448;-70
2022/08/01 10:19:37;;;;;;;3.57;1.20;;;;;;;23.08;79.01;100934.16;5013161;28;21056;-70
2022/08/01 10:22:06;;;;;;;2.37;0.93;;;;;;;22.93;79.23;100927.63;5013467;28;20448;-70
2022/08/01 10:24:37;;;;;;;2.30;0.90;;;;;;;22.77;80.80;100930.59;5013310;28;20553;-70
2022/08/01 10:27:08;;;;;;;3.03;1.07;;;;;;;22.76;78.73;100934.53;5013701;28;20435;-70
2022/08/01 10:29:40;;;;;;;2.30;1.00;;;;;;;22.77;79.24;100932.56;5013257;28;20474;-70
2022/08/01 10:32:09;;;;;;;2.40;0.87;;;;;;;22.86;78.64;100930.31;5013185;28;20571;-70
2022/08/01 10:34:37;;;;;;;2.40;0.83;;;;;;;22.99;78.87;100933.66;5013212;28;20571;-70
2022/08/01 10:37:04;;;;;;;2.10;0.80;;;;;;;22.98;79.24;100937.59;5012902;28;20938;-70
2022/08/01 10:39:32;;;;;;;3.80;1.00;;;;;;;23.06;78.82;100933.72;5013049;28;20459;-70
2022/08/01 10:41:59;;;;;;;2.60;1.13;;;;;;;23.15;78.44;100940.56;5013429;28;20432;-70
2022/08/01 10:44:29;;;;;;;2.40;1.00;;;;;;;23.17;78.53;100940.16;5013234;28;20436;-70
2022/08/01 10:47:02;;;;;;;3.17;1.03;;;;;;;23.26;76.74;100937.91;5012795;28;20893;-70
2022/08/01 10:49:35;;;;;;;2.10;0.70;;;;;;;23.38;75.88;100936.84;5013121;28;20488;-70
2022/08/01 10:52:01;;;;;;;2.20;0.90;;;;;;;23.50;74.72;100941.28;5013138;28;20434;-70
2022/08/01 10:54:28;;;;;;;2.93;1.07;;;;;;;23.37;76.16;100941.59;5012940;28;20934;-70
2022/08/01 10:57:00;;;;;;;2.10;0.80;;;;;;;23.31;76.77;100940.31;5013066;28;20490;-70
2022/08/01 10:59:30;;;;;;;2.53;1.10;;;;;;;23.13;77.33;100947.63;5013035;28;20468;-70
2022/08/01 11:01:58;;;;;;;2.30;0.83;;;;;;;23.07;77.07;100941.66;5013065;28;20468;-70
2022/08/01 11:04:35;;;;;;;1.93;0.63;;;;;;;22.95;77.93;100949.38;5012825;28;20457;-70
2022/08/01 11:07:06;;;;;;;4.07;0.80;;;;;;;22.87;79.46;100954.78;5013066;28;20435;-70
2022/08/01 11:09:41;;;;;;;2.80;1.17;;;;;;;22.51;82.87;100963.78;5012595;28;20479;-69
2022/08/01 11:12:10;;;;;;;2.17;0.83;;;;;;;22.07;84.79;100969.78;5012865;28;20437;-70
2022/08/01 11:15:10;;;;;;;1.97;0.70;;;;;;;21.95;85.86;100975.50;5012502;28;20520;-70
2022/08/01 11:17:43;;;;;;;3.13;1.03;;;;;;;21.73;87.88;100975.13;5012261;28;20531;-70
2022/08/01 11:20:12;;;;;;;2.40;0.90;;;;;;;21.67;87.98;100971.09;5012483;28;20472;-69
2022/08/01 11:23:24;;;;;;;2.17;0.77;;;;;;;21.82;87.19;100972.91;5037180;23;20666;-69
2022/08/01 11:26:23;;;;;;;2.80;1.10;;;;;;;22.00;85.38;100978.75;5017441;28;20456;-69
2022/08/01 11:29:20;;;;;;;2.30;1.00;;;;;;;22.25;84.99;100975.63;5017124;28;20975;-69
2022/08/01 11:31:47;;;;;;;2.03;0.63;;;;;;;22.53;85.19;100975.22;4976093;28;20517;-69
2022/08/01 11:34:15;;;;;;;2.30;0.97;;;;;;;22.64;83.52;100976.19;5007293;28;20849;-69